Latest Weather Observations for Cunderdin Airport

IDW60801

Issued at 8:33 pm WST Thursday 30 March 2017 (issued every 30 minutes, with the page automatically refreshed every 10 minutes)

About weather observations | Map of weather stations | Latest weather observations for WA | Other Formats
Station Details ID: 010286 Name: CUNDERDIN AIRFIELD Lat: -31.62 Lon: 117.22 Height: 216.7 m
Data from the previous 72 hours. | See also: Recent months at Cunderdin Airport
Date/Time
WST
Temp
°C
App
Temp
°C
Dew
Point
°C
Rel
Hum
%
Delta-T
°C
Wind Press
QNH
hPa
Press
MSL
hPa
Rain since
9am
mm
Dir  Spd
km/h
Gust
km/h
Spd
kts
Gust
kts
30/08:30pm 19.5 15.9 3.2 34 7.7 SSE 11 15 6 8 1022.6 1021.7 0.0
30/08:00pm 19.7 16.2 3.4 34 7.7 SSE 11 13 6 7 1022.3 1021.4 0.0
30/07:30pm 20.2 16.7 3.4 33 8.0 SE 11 13 6 7 1022.0 1021.1 0.0
30/07:00pm 20.6 17.5 3.8 33 8.1 SSE 9 11 5 6 1021.7 1020.8 0.0
30/06:30pm 22.0 18.9 3.6 30 9.0 SE 9 13 5 7 1021.5 1020.5 0.0
30/06:00pm 23.8 20.2 3.2 26 10.0 SE 11 17 6 9 1021.3 1020.3 0.0
30/05:30pm 25.0 20.8 3.6 25 10.6 SE 15 20 8 11 1021.1 1020.1 0.0
30/05:00pm 25.7 21.8 3.6 24 11.0 ESE 13 20 7 11 1021.0 1020.0 0.0
30/04:30pm 26.0 22.6 3.9 24 11.1 E 11 19 6 10 1021.0 1020.0 0.0
30/04:00pm 26.3 22.9 4.1 24 11.2 E 11 15 6 8 1021.0 1020.0 0.0
30/03:30pm 26.5 23.2 4.3 24 11.3 E 11 17 6 9 1021.1 1020.1 0.0
30/03:00pm 26.0 21.9 4.5 25 10.9 E 15 22 8 12 1021.1 1020.1 0.0
30/02:30pm 26.2 22.1 4.6 25 11.0 E 15 22 8 12 1021.4 1020.4 0.0
30/02:00pm 25.8 22.7 5.4 27 10.5 ENE 11 20 6 11 1021.5 1020.5 0.0
30/01:30pm 25.0 21.1 5.2 28 10.1 E 15 22 8 12 1021.8 1020.9 0.0
30/01:00pm 24.5 20.7 5.8 30 9.6 ENE 15 26 8 14 1022.2 1021.3 0.0
30/12:30pm 24.0 19.5 6.3 32 9.2 ENE 19 26 10 14 1022.5 1021.6 0.0
30/12:00pm 23.0 18.8 5.9 33 8.7 NE 17 24 9 13 1022.9 1022.0 0.0
30/11:30am 23.0 18.3 5.9 33 8.7 ENE 20 32 11 17 1023.5 1022.6 0.0
30/11:00am 22.5 17.0 5.9 34 8.4 NE 24 32 13 17 1023.8 1022.9 0.0
30/10:30am 21.5 16.4 5.8 36 7.9 NE 22 30 12 16 1024.3 1023.3 0.0
30/10:00am 20.5 15.0 5.7 38 7.4 ENE 24 33 13 18 1024.7 1023.7 0.0
30/09:30am 19.3 13.3 5.4 40 6.9 ENE 26 35 14 19 1025.0 1024.0 0.0
30/09:00am 18.0 12.1 5.6 44 6.1 ENE 26 35 14 19 1025.1 1024.1 0.0
30/08:30am 16.6 11.3 4.9 46 5.6 ENE 22 30 12 16 1025.4 1024.4 0.0
30/08:00am 14.6 9.6 4.6 51 4.7 E 20 28 11 15 1025.4 1024.4 0.0
30/07:30am 13.0 8.0 4.4 56 4.0 E 20 28 11 15 1025.2 1024.2 0.0
30/07:00am 11.9 7.8 4.4 60 3.4 E 15 20 8 11 1025.1 1024.1 0.0
30/06:30am 11.0 7.3 4.2 63 3.1 E 13 17 7 9 1024.9 1023.9 0.0
30/06:00am 11.1 6.6 4.3 63 3.1 E 17 22 9 12 1024.8 1023.8 0.0
30/05:30am 11.2 7.1 4.2 62 3.2 E 15 22 8 12 1024.7 1023.7 0.0
30/05:00am 11.1 7.4 4.3 63 3.1 E 13 19 7 10 1024.7 1023.7 0.0
30/04:30am 11.2 7.5 4.2 62 3.2 ESE 13 19 7 10 1024.5 1023.5 0.0
30/04:00am 11.4 6.8 3.9 60 3.4 ESE 17 22 9 12 1024.4 1023.4 0.0
30/03:30am 11.7 7.5 4.0 59 3.5 ESE 15 24 8 13 1024.3 1023.3 0.0
30/03:00am 12.1 7.5 3.9 57 3.7 E 17 22 9 12 1024.4 1023.4 0.0
30/02:30am 12.4 7.8 3.6 55 4.0 ESE 17 24 9 13 1024.6 1023.6 0.0
30/02:00am 12.9 7.9 3.6 53 4.2 ESE 19 26 10 14 1024.7 1023.7 0.0
30/01:30am 13.3 8.3 3.4 51 4.5 ESE 19 28 10 15 1024.7 1023.7 0.0
30/01:00am 13.6 8.6 3.4 50 4.6 ESE 19 26 10 14 1024.7 1023.7 0.0
30/12:30am 14.1 9.0 3.3 48 4.9 ESE 19 30 10 16 1024.7 1023.7 0.0
30/12:00am 14.4 9.3 3.2 47 5.1 ESE 19 26 10 14 1024.6 1023.6 0.0
 
Date/Time
WST
Temp
°C
App
Temp
°C
Dew
Point
°C
Rel
Hum
%
Delta-T
°C
Wind Press
QNH
hPa
Press
MSL
hPa
Rain since
9am
mm
Dir  Spd
km/h
Gust
km/h
Spd
kts
Gust
kts
29/11:30pm 15.0 9.9 2.9 44 5.5 ESE 19 24 10 13 1024.5 1023.5 0.0
29/11:00pm 15.5 10.6 2.0 40 6.0 ESE 17 26 9 14 1024.4 1023.4 0.0
29/10:30pm 16.1 11.1 1.4 37 6.5 ESE 17 26 9 14 1024.4 1023.4 0.0
29/10:00pm 16.8 11.4 1.3 35 6.9 ESE 19 26 10 14 1024.3 1023.3 0.0
29/09:30pm 17.4 12.1 1.8 35 7.1 ESE 19 28 10 15 1024.1 1023.1 0.0
29/09:00pm 17.6 12.5 2.8 37 6.8 SE 19 28 10 15 1023.9 1023.0 0.0
29/08:30pm 18.1 12.9 2.4 35 7.2 SE 19 28 10 15 1023.7 1022.8 0.0
29/08:00pm 18.5 13.3 2.4 34 7.4 SE 19 26 10 14 1023.5 1022.6 0.0
29/07:30pm 18.9 13.7 2.7 34 7.6 SE 19 24 10 13 1023.3 1022.4 0.0
29/07:00pm 19.3 14.5 2.6 33 7.8 SE 17 22 9 12 1023.1 1022.2 0.0
29/06:30pm 20.1 14.9 2.5 31 8.3 SE 19 24 10 13 1022.8 1021.9 0.0
29/06:00pm 21.4 15.5 1.7 27 9.2 ESE 22 33 12 18 1022.7 1021.8 0.0
29/05:30pm 22.2 16.7 1.8 26 9.6 ESE 20 28 11 15 1022.6 1021.7 0.0
29/05:00pm 22.4 16.2 2.0 26 9.6 SE 24 39 13 21 1022.5 1021.6 0.0
29/04:30pm 22.6 16.4 2.1 26 9.7 ESE 24 35 13 19 1022.5 1021.6 0.0
29/04:00pm 22.8 16.2 1.8 25 9.9 ESE 26 41 14 22 1022.6 1021.7 0.0
29/03:30pm 23.0 16.4 1.9 25 10.0 ESE 26 43 14 23 1022.6 1021.7 0.0
29/03:00pm 23.0 16.9 2.5 26 9.8 ESE 24 35 13 19 1022.7 1021.8 0.0
29/02:30pm 22.5 16.3 2.1 26 9.7 ESE 24 33 13 18 1022.9 1022.0 0.0
29/02:00pm 22.8 16.7 2.8 27 9.6 ESE 24 41 13 22 1023.2 1022.3 0.0
29/01:30pm 21.7 15.2 2.4 28 9.2 ESE 26 41 14 22 1023.5 1022.6 0.0
29/01:00pm 21.6 15.8 2.3 28 9.1 ESE 22 35 12 19 1023.8 1022.9 0.0
29/12:30pm 20.8 14.0 3.1 31 8.5 ESE 28 37 15 20 1024.2 1023.2 0.0
29/12:00pm 20.9 15.1 4.5 34 8.0 ESE 24 39 13 21 1024.6 1023.6 0.0
29/11:30am 19.2 12.7 4.6 38 7.1 ESE 28 46 15 25 1025.0 1024.0 0.0
29/11:23am 19.9 13.4 4.8 37 7.4 ESE 28 46 15 25 1025.0 1024.0 0.0
29/11:00am 18.7 12.4 5.5 42 6.5 ESE 28 39 15 21 1025.4 1024.4 0.0
29/10:30am 18.0 12.0 5.2 43 6.2 ESE 26 39 14 21 1025.5 1024.5 0.0
29/10:00am 17.2 10.4 5.2 45 5.8 ESE 30 41 16 22 1025.7 1024.8 0.0
29/09:30am 16.6 10.2 5.3 47 5.5 ESE 28 43 15 23 1025.7 1024.8 0.0
29/09:08am 16.0 9.7 5.6 50 5.0 ESE 28 46 15 25 1025.9 1025.0 0.0
29/09:00am 15.4 8.6 5.0 50 4.9 ESE 30 44 16 24 1025.9 1025.0 0.0
29/08:30am 14.7 8.3 5.2 53 4.5 ESE 28 43 15 23 1025.5 1024.5 0.0
29/08:00am 13.8 7.9 5.7 58 3.9 ESE 26 35 14 19 1025.4 1024.4 0.0
29/07:30am 12.9 8.3 6.7 66 3.0 ESE 20 30 11 16 1025.1 1024.1 0.0
29/07:00am 11.9 8.1 7.4 74 2.2 ESE 17 26 9 14 1024.8 1023.8 0.0
29/06:30am 11.4 8.0 7.5 77 1.9 SE 15 22 8 12 1024.3 1023.3 0.0
29/06:00am 11.7 7.9 7.6 76 2.0 SE 17 24 9 13 1024.3 1023.3 0.0
29/05:30am 12.1 8.4 7.8 75 2.1 SE 17 24 9 13 1023.9 1023.0 0.0
29/05:00am 12.4 8.7 7.9 74 2.2 SE 17 24 9 13 1023.7 1022.8 0.0
29/04:30am 12.7 9.1 8.2 74 2.3 SE 17 24 9 13 1023.4 1022.5 0.0
29/04:00am 12.9 9.0 8.6 75 2.2 SE 19 26 10 14 1023.1 1022.2 0.0
29/03:30am 13.1 9.0 8.8 75 2.2 SE 20 28 11 15 1022.8 1021.9 0.0
29/03:00am 13.3 9.9 9.2 76 2.1 SE 17 24 9 13 1022.4 1021.5 0.0
29/02:30am 13.7 9.8 9.4 75 2.2 SE 20 28 11 15 1022.4 1021.5 0.0
29/02:00am 13.9 10.3 9.9 77 2.1 SE 19 30 10 16 1022.2 1021.3 0.0
29/01:30am 14.5 8.8 9.9 74 2.4 SE 30 46 16 25 1021.7 1020.8 0.0
29/01:18am 14.8 8.8 10.2 74 2.4 SE 32 50 17 27 1021.4 1020.4 0.0
29/01:00am 14.7 10.4 10.7 77 2.1 SE 24 37 13 20 1021.3 1020.3 0.0
29/12:30am 15.8 12.0 9.7 67 3.2 SSE 20 35 11 19 1020.8 1019.8 0.0
29/12:00am 16.0 12.4 9.9 67 3.2 SSE 19 24 10 13 1020.5 1019.5 0.0
 
Date/Time
WST
Temp
°C
App
Temp
°C
Dew
Point
°C
Rel
Hum
%
Delta-T
°C
Wind Press
QNH
hPa
Press
MSL
hPa
Rain since
9am
mm
Dir  Spd
km/h
Gust
km/h
Spd
kts
Gust
kts
28/11:30pm 15.4 13.5 10.4 72 2.7 S 11 17 6 9 1020.4 1019.4 0.0
28/11:00pm 15.7 13.5 10.9 73 2.6 SSW 13 17 7 9 1020.3 1019.3 0.0
28/10:30pm 16.2 13.4 11.2 72 2.7 SSW 17 24 9 13 1020.2 1019.2 0.0
28/10:00pm 16.3 13.8 11.0 71 2.9 SSW 15 20 8 11 1020.0 1019.0 0.0
28/09:30pm 17.0 14.2 11.3 69 3.1 SW 17 22 9 12 1019.8 1018.8 0.0
28/09:00pm 17.6 14.5 11.6 68 3.3 SSW 19 24 10 13 1019.4 1018.4 0.0
28/08:30pm 17.8 15.1 11.6 67 3.4 SW 17 20 9 11 1018.9 1018.0 0.0
28/08:00pm 18.1 16.1 11.4 65 3.7 SW 13 15 7 8 1018.8 1017.9 0.0
28/07:30pm 19.1 16.3 11.4 61 4.3 SSW 17 20 9 11 1018.3 1017.4 0.0
28/07:00pm 20.2 17.2 11.9 59 4.7 SSW 19 26 10 14 1017.7 1016.8 0.0
28/06:30pm 21.2 17.7 12.1 56 5.2 SW 22 28 12 15 1017.4 1016.4 0.0
28/06:00pm 22.2 17.8 11.6 51 6.0 SW 26 33 14 18 1017.0 1016.0 0.0
28/05:30pm 22.9 18.1 11.6 49 6.4 SW 28 32 15 17 1016.7 1015.7 0.0
28/05:00pm 24.8 21.4 11.4 43 7.6 SSW 20 33 11 18 1016.4 1015.4 0.0
28/04:30pm 25.3 21.3 8.3 34 9.2 SW 19 24 10 13 1016.5 1015.5 0.0
28/04:00pm 26.0 22.4 8.5 33 9.5 SW 17 22 9 12 1016.4 1015.4 0.0
28/03:30pm 26.8 23.3 8.7 32 9.9 SW 17 26 9 14 1016.3 1015.3 0.0
28/03:00pm 26.4 22.9 8.8 33 9.7 SW 17 24 9 13 1016.5 1015.5 0.0
28/02:30pm 25.8 22.7 7.4 31 9.8 WSW 13 20 7 11 1016.8 1015.8 0.0
28/02:00pm 25.7 22.5 6.8 30 10.0 SW 13 20 7 11 1017.0 1016.0 0.0
28/01:30pm 24.8 21.7 7.4 33 9.2 WSW 13 19 7 10 1017.5 1016.5 0.0
28/01:00pm 24.8 21.3 7.4 33 9.2 WSW 15 22 8 12 1017.9 1017.0 0.0
28/12:30pm 24.7 22.5 7.8 34 9.0 WNW 9 17 5 9 1018.1 1017.2 0.0
28/12:00pm 23.2 21.5 8.5 39 7.9 SW 7 15 4 8 1018.4 1017.5 0.0
28/11:30am 22.4 20.4 8.5 41 7.4 SW 9 19 5 10 1018.7 1017.8 0.0
28/11:00am 21.7 20.1 8.9 44 6.9 SSW 7 11 4 6 1019.0 1018.1 0.0
28/10:30am 21.5 20.7 9.7 47 6.4 NE 4 9 2 5 1019.4 1018.4 0.0
28/10:00am 20.2 18.8 9.7 51 5.7 E 7 13 4 7 1019.5 1018.5 0.0
28/09:30am 18.9 18.0 10.5 58 4.6 SSE 6 11 3 6 1019.5 1018.5 0.0
28/09:00am 17.3 15.3 10.0 62 3.9 SE 11 15 6 8 1019.7 1018.7 0.0
28/08:30am 15.8 14.1 9.7 67 3.2 SE 9 17 5 9 1019.8 1018.8 0.0
28/08:00am 14.4 14.4 9.8 74 2.4 CALM 0 6 0 3 1019.7 1018.7 0.0
28/07:30am 11.5 11.3 9.1 85 1.2 CALM 0 4 0 2 1019.3 1018.3 0.0
28/07:00am 8.6 7.2 7.2 91 0.7 NNW 4 7 2 4 1019.0 1018.1 0.0
28/06:30am 7.7 6.8 6.0 89 0.8 CALM 0 0 0 0 1018.8 1017.9 0.0
28/06:00am 8.5 7.7 6.6 88 0.9 CALM 0 0 0 0 1018.9 1018.0 0.0
28/05:30am 8.6 7.8 6.7 88 0.9 CALM 0 0 0 0 1018.8 1017.9 0.0
28/05:00am 8.8 8.1 6.9 88 0.9 CALM 0 0 0 0 1019.1 1018.2 0.0
28/04:30am 8.6 7.8 6.6 87 0.9 CALM 0 0 0 0 1018.9 1018.0 0.0
28/04:00am 7.9 6.6 5.9 87 0.9 N 2 7 1 4 1018.7 1017.8 0.0
28/03:30am 8.0 5.8 6.1 88 0.9 NNE 7 9 4 5 1018.7 1017.8 0.0
28/03:00am 8.0 5.8 6.0 87 0.9 N 7 9 4 5 1018.8 1017.9 0.0
28/02:30am 8.0 5.9 6.0 87 0.9 NNE 6 7 3 4 1019.0 1018.1 0.0
28/02:00am 8.3 6.3 6.1 86 1.0 NNE 6 7 3 4 1019.3 1018.3 0.0
28/01:30am 9.1 8.2 6.0 81 1.4 CALM 0 6 0 3 1019.6 1018.6 0.0
28/01:00am 11.7 9.7 7.0 73 2.3 SSW 7 9 4 5 1019.6 1018.6 0.0
28/12:30am 10.9 9.0 6.8 76 2.0 SW 6 9 3 5 1019.3 1018.3 0.0
28/12:00am 10.7 9.2 6.8 77 1.9 WSW 4 7 2 4 1019.5 1018.5 0.0
 
Date/Time
WST
Temp
°C
App
Temp
°C
Dew
Point
°C
Rel
Hum
%
Delta-T
°C
Wind Press
QNH
hPa
Press
MSL
hPa
Rain since
9am
mm
Dir  Spd
km/h
Gust
km/h
Spd
kts
Gust
kts
27/11:30pm 10.6 9.0 6.2 74 2.1 NW 4 9 2 5 1019.6 1018.6 0.0
27/11:00pm 10.6 9.8 6.6 76 1.9 CALM 0 0 0 0 1019.7 1018.7 0.0
27/10:30pm 10.1 8.1 6.3 77 1.8 NNE 6 7 3 4 1019.8 1018.8 0.0
27/10:00pm 10.9 8.8 6.6 75 2.0 NNE 7 7 4 4 1020.0 1019.0 0.0
27/09:30pm 10.8 8.6 6.4 74 2.1 NNE 7 9 4 5 1019.8 1018.8 0.0
27/09:00pm 13.7 12.9 6.6 62 3.4 CALM 0 0 0 0 1019.7 1018.7 0.0

Other Formats:

Comma delimited format used in spreadsheet applications
http://www.bom.gov.au/fwo/IDW60801/IDW60801.95625.axf

JavaScript Object Notation format (JSON) in row-major order
http://www.bom.gov.au/fwo/IDW60801/IDW60801.95625.json